Aérodrome :
LOGIN :

S'inscrire | Disclaimer

   EN    FR    IT 

 










Légende :    VFR   VFR Marginal   IFR   IFR Intensif   IFR Très Intensif
Visi : 
Plafond : 
>= 8 km
>= 3000ft
5 à 8 km
1000 à 3000 ft
1500m à 5 km
500 à 1000 ft
800 à 1500m
200 à 500 ft
< 800m
< 200 ft
Symboles :   Orages  Brouillard  Fortes neiges  Fortes précipitations  Vent > 20 kt
SIGMETs :   Divers  Orages  Givrage  Turbulence  Onde Orograph.  Cendres Volcan.






- Altitude de l'aérodrome : 21 ft
- Code IATA : BJV


LTFE - Bodrum

DERNIER METAR :
  • 240620Z 17003KT 140V220 CAVOK 05/04 Q1020 NOSIG RMK RWY10 13004KT

METARs EXPIRÉS :
  • 240550Z 07003KT 030V090 CAVOK 03/03 Q1019 NOSIG RMK RWY10 06005KT 360V100
  • 240520Z 14004KT CAVOK 02/01 Q1019 NOSIG
  • 240450Z VRB01KT CAVOK 01/01 Q1019 NOSIG RMK RWY10 08003KT
  • 240420Z 09003KT CAVOK 02/01 Q1019 NOSIG RMK RWY10 07003KT
  • 240350Z 12004KT CAVOK 02/01 Q1019 NOSIG RMK RWY10 09005KT

TAF TAF LTFE
Valide du 24 à 06h jusqu'au 25 à 06h UTC


240440Z 2406/2506 VRB02KT CAVOK
BECMG 2408/2411 26012KT FEW035
BECMG 2415/2418 VRB02KT CAVOK



MET'MAP, la Météo Aéronautique d'un coup d'oeil ! - Copyright ORBIFLY Décembre 2007 - Disclaimer

ORBIFLY MET'MAP TEAM :

Programmation & Développement : Alexandra Zaïnal
Sur une idée originale de : Baudouin d'Aumeries
Assistance à la programmation : Marc-Olivier Méhu
Soutien technique & logistique : Manuel Goepfert

Contact : metmap@orbifly.com




SOURCES & CREDITS :

   NOAA